Schreiber, Canada
Current Conditions -  °F | °C
As of 10:00 AM on Wednesday 26 Nov 2014 (Local Time) from CYSP Reporting Station
Light Snow Light Snow  
Wind Chill: -20°   Ceiling: 900
Heat Index: -13°   Visibility: 2.5mi
Dew Point: -15°   Wind: 9mph
Humidity: 85%   Direction: 40°NE
Pressure: 30.16"   Gusts: NA
Location:  48.8°N, 87.27°W
Report Text: CYSP 261500Z 04008KT 2 1/2SM -SN BKN009 OVC020 M13/M15 A3016 RMK SN2SC4SC2 VIS VRB 1-4 /S01/ SLP242
Loading
Personal Weather Stations






























Interactive Weather Map New forecast layout! Learn more

10-Day Weather Forecast

Advertisements
Track Severe Weather on mobile